Mejorada del Campo, Spain
Current Conditions -  °F | °C
As of 4:00 AM on Monday 24 Nov 2014 (Local Time) from LEMD Reporting Station
Scattered Clouds Scattered Clouds  
Wind Chill: 54°   Ceiling: Unl
Heat Index: 54°   Visibility: 6mi
Dew Point: 52°   Wind: 1mph
Humidity: 94%   Direction: 340°NNW
Pressure: 30"   Gusts: NA
Location:  40.39°N, 3.48°W
Report Text: LEMD 240300Z 34001KT 9999 SCT045 SCT070 12/11 Q1016 NOSIG
Loading
Personal Weather Stations






























Interactive Weather Map New forecast layout! Learn more

10-Day Weather Forecast

Advertisements
Track Severe Weather on mobile